Time;durP1;ratioP1;P1;durP2;ratioP2;P2;SDS_P1;SDS_P2;PMS_P1;PMS_P2;Temp;Humidity;BMP_temperature;BMP_pressure;BME280_temperature;BME280_humidity;BME280_pressure;Samples;Min_cycle;Max_cycle;Signal;HPM_P1;HPM_P2
2021/03/15 00:01:34;;;;;;;17.67;5.18;;;9.40;99.90;;;8.75;87.13;102068.38;4217548;28;20479;-74
2021/03/15 00:03:37;;;;;;;20.30;4.90;;;9.50;99.90;;;8.81;87.31;102064.50;4217504;28;20058;-73
2021/03/15 00:05:38;;;;;;;19.77;5.47;;;9.50;99.90;;;8.75;87.97;102063.13;4217381;28;20028;-73
2021/03/15 00:07:40;;;;;;;22.52;5.95;;;9.40;99.90;;;8.78;87.31;102062.88;4217629;28;20141;-73
2021/03/15 00:09:41;;;;;;;20.65;5.97;;;9.50;99.90;;;8.85;87.58;102063.28;4217733;28;20502;-73
2021/03/15 00:11:42;;;;;;;20.02;4.95;;;9.50;99.90;;;8.88;87.74;102053.38;4217518;28;20028;-73
2021/03/15 00:13:43;;;;;;;18.00;5.78;;;9.60;99.90;;;8.88;87.57;102050.75;4217315;28;20024;-73
2021/03/15 00:15:44;;;;;;;24.42;5.78;;;9.50;99.90;;;8.84;88.20;102051.91;4216071;28;20028;-73
2021/03/15 00:17:46;;;;;;;20.13;4.70;;;9.60;99.90;;;8.78;88.69;102047.09;4216523;28;20021;-74
2021/03/15 00:19:47;;;;;;;17.48;4.20;;;9.60;99.90;;;8.69;88.43;102025.91;4214101;28;20111;-73
2021/03/15 00:21:48;;;;;;;25.83;5.35;;;9.60;99.90;;;8.79;88.52;102040.06;4220381;28;20546;-73
2021/03/15 00:23:48;;;;;;;22.27;5.75;;;9.60;99.90;;;8.78;89.31;102049.75;4220501;28;20082;-73
2021/03/15 00:25:50;;;;;;;19.73;5.20;;;9.60;99.90;;;8.76;89.48;102027.97;4220435;28;20162;-73
2021/03/15 00:27:51;;;;;;;23.17;4.47;;;9.50;99.90;;;8.84;88.96;102024.78;4220235;28;20032;-73
2021/03/15 00:29:51;;;;;;;16.80;4.15;;;9.60;99.90;;;8.95;88.41;102042.41;4220330;28;20020;-73
2021/03/15 00:31:52;;;;;;;21.75;5.25;;;9.60;99.90;;;8.87;89.02;102032.44;4215805;28;20068;-73
2021/03/15 00:33:53;;;;;;;21.38;4.55;;;9.60;99.90;;;8.96;89.22;102044.09;4211796;28;20031;-73
2021/03/15 00:35:55;;;;;;;15.60;4.80;;;9.60;99.90;;;8.98;89.12;102037.75;4220049;28;20088;-74
2021/03/15 00:37:56;;;;;;;25.13;4.47;;;9.60;99.90;;;9.03;89.03;102029.50;4220164;28;20073;-74
2021/03/15 00:39:57;;;;;;;25.90;6.20;;;9.70;99.90;;;8.94;89.50;102041.56;4220198;28;20032;-73
2021/03/15 00:41:58;;;;;;;20.10;4.57;;;9.60;99.90;;;8.93;89.08;102044.31;4220318;28;20030;-74
2021/03/15 00:43:59;;;;;;;21.45;5.65;;;9.60;99.90;;;8.94;89.77;102040.72;4218962;28;20024;-74
2021/03/15 00:46:00;;;;;;;30.30;5.15;;;9.60;99.90;;;8.87;89.74;102041.16;4220077;28;20034;-73
2021/03/15 00:48:01;;;;;;;18.70;5.10;;;9.60;99.90;;;8.78;90.42;102043.66;4218974;28;20051;-73
2021/03/15 00:50:27;;;;;;;13.40;3.83;;;9.50;99.90;;;8.81;89.89;102033.72;4210460;28;20035;-74
2021/03/15 00:52:28;;;;;;;20.05;4.70;;;9.50;99.90;;;8.82;89.71;102043.31;4220152;28;20028;-73
2021/03/15 00:54:29;;;;;;;28.00;5.30;;;9.50;99.90;;;8.66;91.33;102032.22;4220121;28;20364;-74
2021/03/15 00:56:30;;;;;;;22.33;5.63;;;9.40;99.90;;;8.88;90.10;102056.00;4220225;28;20054;-74
2021/03/15 00:58:30;;;;;;;22.90;4.80;;;9.50;99.90;;;8.92;90.00;102038.22;4220007;28;20023;-74
2021/03/15 01:00:36;;;;;;;25.65;6.38;;;9.60;99.90;;;8.80;90.86;102045.22;4219883;28;20020;-73
2021/03/15 01:02:37;;;;;;;26.60;5.82;;;9.60;99.90;;;8.82;90.98;102043.31;4219835;28;20017;-73
2021/03/15 01:04:37;;;;;;;16.75;4.90;;;9.60;99.90;;;8.93;90.66;102039.06;4219824;28;20020;-73
2021/03/15 01:06:39;;;;;;;30.33;8.20;;;9.60;99.90;;;8.84;91.00;102015.09;4220128;28;20020;-74
2021/03/15 01:08:41;;;;;;;24.40;5.70;;;9.70;99.90;;;9.06;90.78;102037.16;4219807;28;20028;-73
2021/03/15 01:10:46;;;;;;;21.67;5.43;;;9.70;99.90;;;8.97;90.98;102028.19;4219988;28;20020;-73
2021/03/15 01:12:47;;;;;;;17.13;4.90;;;9.70;99.90;;;9.07;90.34;102028.34;4219908;28;20035;-73
2021/03/15 01:14:48;;;;;;;22.05;5.13;;;9.70;99.90;;;9.05;90.84;102017.09;4219699;28;20051;-73
2021/03/15 01:16:49;;;;;;;12.93;3.80;;;9.70;99.90;;;9.02;90.69;102023.41;4219698;28;20032;-74
2021/03/15 01:18:49;;;;;;;17.42;4.50;;;9.70;99.90;;;9.08;91.08;102024.75;4219993;28;20218;-74
2021/03/15 01:20:50;;;;;;;18.30;3.80;;;9.70;99.90;;;8.99;91.24;102012.28;4219518;28;20495;-73
2021/03/15 01:22:52;;;;;;;19.30;4.03;;;9.70;99.90;;;9.10;90.93;102025.47;4218516;28;20055;-74
2021/03/15 01:24:52;;;;;;;21.63;5.38;;;9.70;99.90;;;9.09;91.31;102029.88;4216932;28;20043;-73
2021/03/15 01:26:53;;;;;;;15.40;4.47;;;9.80;99.90;;;9.01;91.95;102018.25;4218696;28;20406;-74
2021/03/15 01:28:54;;;;;;;19.42;5.25;;;9.80;99.90;;;9.02;92.39;102020.75;4209983;28;20024;-74
2021/03/15 01:30:55;;;;;;;26.85;5.25;;;9.70;99.90;;;8.96;93.25;102017.78;4219198;28;20024;-73
2021/03/15 01:32:57;;;;;;;22.75;4.90;;;9.80;99.90;;;8.96;93.05;102002.00;4219332;28;20514;-73
2021/03/15 01:34:58;;;;;;;15.75;4.22;;;9.80;99.90;;;9.09;92.76;102008.00;4219206;28;20165;-73
2021/03/15 01:36:59;;;;;;;17.65;5.28;;;9.80;99.90;;;8.93;93.35;102008.28;4219309;28;20028;-74
2021/03/15 01:38:59;;;;;;;22.20;4.50;;;9.80;99.90;;;8.99;93.18;102009.66;4219189;28;20030;-73
2021/03/15 01:41:01;;;;;;;22.23;5.78;;;9.80;99.90;;;9.00;93.63;102006.03;4219297;28;20031;-73
2021/03/15 01:43:03;;;;;;;22.25;4.90;;;9.70;99.90;;;9.14;93.05;102008.50;4219381;28;20024;-73
2021/03/15 01:45:05;;;;;;;18.65;4.85;;;9.80;99.90;;;9.13;92.82;102014.72;4219362;28;20107;-74
2021/03/15 01:47:06;;;;;;;21.55;4.55;;;9.80;99.90;;;9.18;92.53;102002.03;4219247;28;20019;-74
2021/03/15 01:49:07;;;;;;;18.02;5.05;;;9.80;99.90;;;9.14;92.30;102011.94;4218771;28;20519;-74
2021/03/15 01:51:08;;;;;;;21.88;6.80;;;9.80;99.90;;;9.06;93.01;102009.06;4219198;28;20107;-74
2021/03/15 01:53:12;;;;;;;15.65;4.07;;;9.80;99.90;;;9.09;92.67;102003.56;4219310;28;20052;-73
2021/03/15 01:55:15;;;;;;;17.77;5.87;;;9.80;99.90;;;9.07;92.56;101988.84;4219260;28;20479;-73
2021/03/15 01:57:16;;;;;;;18.17;5.05;;;9.80;99.90;;;9.11;93.16;101999.00;4217851;28;20757;-73
2021/03/15 01:59:19;;;;;;;24.38;4.88;;;9.80;99.90;;;9.15;93.10;102012.78;4205902;28;20028;-73
2021/03/15 02:01:20;;;;;;;14.70;4.32;;;9.80;99.90;;;9.23;92.38;102002.50;4217684;28;20035;-73
2021/03/15 02:03:21;;;;;;;20.90;4.93;;;9.80;99.90;;;9.22;92.29;101992.97;4212643;28;20538;-74
2021/03/15 02:05:22;;;;;;;21.88;5.47;;;9.80;99.90;;;9.21;92.80;101997.38;4218653;28;20032;-73
2021/03/15 02:07:23;;;;;;;21.90;5.07;;;9.90;99.90;;;9.29;92.20;101992.34;4218992;28;20115;-73
2021/03/15 02:09:24;;;;;;;21.10;4.20;;;9.90;99.90;;;9.25;92.52;102003.25;4218843;28;20028;-74
2021/03/15 02:11:53;;;;;;;14.25;3.70;;;9.90;99.90;;;9.21;92.75;101986.84;4218955;28;20104;-74
2021/03/15 02:14:02;;;;;;;13.93;3.67;;;9.90;99.90;;;9.30;92.17;101990.56;4218897;28;20024;-73
2021/03/15 02:16:10;;;;;;;24.33;4.35;;;10.00;99.90;;;9.25;92.37;101984.81;4218718;28;20028;-73
2021/03/15 02:19:19;;;;;;;21.17;4.38;;;10.00;99.90;;;9.26;92.77;101989.13;4218680;28;20023;-73
2021/03/15 02:22:00;;;;;;;21.02;5.53;;;10.00;99.90;;;9.30;92.68;101996.69;4166952;28;20552;-73
2021/03/15 02:24:49;;;;;;;20.83;5.00;;;10.00;99.90;;;9.34;91.94;101986.75;4218673;28;20035;-73
2021/03/15 02:27:23;;;;;;;17.08;4.63;;;10.00;99.90;;;9.35;92.55;101988.41;4218777;28;20089;-73
2021/03/15 02:30:07;;;;;;;27.55;5.72;;;10.00;99.90;;;9.34;92.52;101987.59;4216421;28;20020;-74
2021/03/15 02:32:17;;;;;;;13.48;5.28;;;10.10;99.90;;;9.41;92.59;101988.78;4209094;28;20031;-74
2021/03/15 02:34:49;;;;;;;25.35;4.78;;;10.10;99.90;;;9.36;92.27;101977.78;4217084;28;20021;-74
2021/03/15 02:36:51;;;;;;;19.30;5.25;;;10.00;99.90;;;9.37;92.02;101965.44;4207313;28;20028;-74
2021/03/15 02:38:53;;;;;;;24.33;4.13;;;10.10;99.90;;;9.28;92.38;101969.63;4217206;28;20028;-74
2021/03/15 02:41:00;;;;;;;23.25;5.78;;;10.00;99.90;;;9.31;92.87;101971.19;4217251;28;20497;-74
2021/03/15 02:43:13;;;;;;;11.07;4.22;;;10.10;99.90;;;9.25;93.47;101963.75;4217811;28;20555;-73
2021/03/15 02:45:15;;;;;;;11.40;3.88;;;10.00;99.90;;;9.33;93.19;101954.31;4216743;28;20107;-74
2021/03/15 02:47:29;;;;;;;21.95;4.60;;;10.00;99.90;;;9.34;92.69;101950.72;4213531;28;20024;-74
2021/03/15 02:49:35;;;;;;;22.85;6.00;;;10.00;99.90;;;9.25;92.76;101937.44;4218113;28;20051;-74
2021/03/15 02:51:39;;;;;;;27.33;5.57;;;10.00;99.90;;;9.39;92.59;101947.72;4217123;28;20039;-74
2021/03/15 02:53:42;;;;;;;13.43;4.85;;;10.00;99.90;;;9.31;93.17;101929.06;4213276;28;20040;-74
2021/03/15 02:55:49;;;;;;;20.15;5.45;;;10.00;99.90;;;9.23;93.89;101949.84;4216798;28;20039;-74
2021/03/15 02:57:52;;;;;;;18.08;4.70;;;10.00;99.90;;;9.30;93.77;101946.66;4206304;28;20495;-74
2021/03/15 02:59:54;;;;;;;18.10;5.30;;;10.10;99.90;;;9.28;93.80;101939.84;4211178;28;20035;-74
2021/03/15 03:01:56;;;;;;;21.23;5.18;;;10.00;99.90;;;9.36;94.27;101942.69;4200467;28;20024;-74
2021/03/15 03:03:59;;;;;;;21.98;4.30;;;10.00;99.90;;;9.26;94.21;101937.31;4218130;28;20051;-74
2021/03/15 03:06:01;;;;;;;16.08;4.38;;;10.00;99.90;;;9.37;94.22;101934.69;4217002;28;20032;-74
2021/03/15 03:08:05;;;;;;;26.20;5.40;;;10.00;99.90;;;9.40;94.41;101939.72;4211480;28;20494;-74
2021/03/15 03:10:09;;;;;;;19.75;5.30;;;10.10;99.90;;;9.23;94.84;101924.38;4216849;28;20039;-74
2021/03/15 03:12:13;;;;;;;14.90;4.22;;;10.10;99.90;;;9.28;94.96;101932.78;4217126;28;20036;-74
2021/03/15 03:14:15;;;;;;;17.60;4.53;;;10.10;99.90;;;9.22;95.81;101914.81;4208894;28;20035;-74
2021/03/15 03:16:19;;;;;;;18.23;5.07;;;10.00;99.90;;;9.28;95.68;101930.16;4216726;28;20059;-74
2021/03/15 03:18:22;;;;;;;16.27;4.82;;;10.00;99.90;;;9.33;94.87;101933.25;4216299;28;20058;-73
2021/03/15 03:20:25;;;;;;;23.52;5.95;;;10.00;99.90;;;9.34;95.20;101926.19;4216705;28;20028;-73
2021/03/15 03:22:27;;;;;;;28.20;6.68;;;10.00;99.90;;;9.26;95.52;101936.47;4209905;28;20024;-74
2021/03/15 03:24:31;;;;;;;20.13;4.78;;;10.00;99.90;;;9.32;94.55;101921.03;4218110;28;20106;-74
2021/03/15 03:26:32;;;;;;;19.00;4.35;;;10.00;99.90;;;9.37;95.02;101932.06;4216570;28;20051;-74
2021/03/15 03:28:34;;;;;;;18.17;4.50;;;10.00;99.90;;;9.28;94.63;101909.06;4205403;28;20024;-74
2021/03/15 03:30:40;;;;;;;20.23;4.07;;;10.10;99.90;;;9.33;94.66;101925.34;4210106;28;20074;-74
2021/03/15 03:32:43;;;;;;;16.75;5.05;;;10.10;99.90;;;9.42;94.58;101936.97;4216673;28;20053;-74
2021/03/15 03:34:43;;;;;;;20.10;5.57;;;10.00;99.90;;;9.25;95.81;101926.91;4232996;28;20125;-74
2021/03/15 03:36:44;;;;;;;20.42;4.18;;;10.10;99.90;;;9.32;95.10;101931.56;4206253;28;20391;-74
2021/03/15 03:38:46;;;;;;;15.05;3.70;;;10.00;99.90;;;9.12;95.50;101905.09;4217892;28;20560;-73
2021/03/15 03:40:47;;;;;;;21.25;4.90;;;10.00;99.90;;;9.32;95.62;101926.28;4217967;28;20042;-74
2021/03/15 03:42:48;;;;;;;27.75;6.03;;;10.00;99.90;;;9.34;95.41;101924.41;4217835;28;20052;-74
2021/03/15 03:44:52;;;;;;;18.50;4.47;;;10.00;99.90;;;9.28;95.41;101934.56;4217997;28;20043;-74
2021/03/15 03:46:53;;;;;;;18.90;4.50;;;10.00;99.90;;;9.36;95.54;101946.19;4216511;28;20024;-74
2021/03/15 03:48:55;;;;;;;16.45;4.43;;;10.00;99.90;;;9.33;95.60;101937.66;4212642;28;20518;-74
2021/03/15 03:50:57;;;;;;;21.17;4.60;;;10.10;99.90;;;9.34;95.77;101929.66;4216281;28;20028;-74
2021/03/15 03:53:16;;;;;;;16.77;5.38;;;10.10;99.90;;;9.39;95.58;101951.22;4206119;28;20113;-74
2021/03/15 03:55:21;;;;;;;16.83;4.22;;;10.10;99.90;;;9.36;95.79;101950.59;4221151;28;20031;-74
2021/03/15 03:57:32;;;;;;;19.98;4.95;;;10.10;99.90;;;9.42;95.29;101952.75;4219808;28;20024;-74
2021/03/15 03:59:37;;;;;;;16.75;5.72;;;10.10;99.90;;;9.23;95.31;101923.53;4209819;28;20074;-74
2021/03/15 04:01:45;;;;;;;21.65;5.03;;;10.10;99.90;;;9.45;95.20;101947.25;4219514;28;20028;-74
2021/03/15 04:03:53;;;;;;;19.92;4.68;;;10.20;99.90;;;9.44;95.41;101946.41;4216368;28;20069;-74
2021/03/15 04:06:03;;;;;;;20.23;4.88;;;10.20;99.90;;;9.42;95.13;101945.69;4208240;28;20032;-74
2021/03/15 04:08:10;;;;;;;20.08;4.72;;;10.10;99.90;;;9.36;96.08;101946.19;4220990;28;20052;-74
2021/03/15 04:10:13;;;;;;;18.00;4.50;;;10.10;99.90;;;9.44;95.32;101940.31;4220872;28;20046;-74
2021/03/15 04:12:20;;;;;;;21.90;5.18;;;10.10;99.90;;;9.30;95.84;101943.16;4220841;28;20097;-74
2021/03/15 04:14:29;;;;;;;15.85;4.47;;;10.10;99.90;;;9.40;95.87;101936.25;4220781;28;20092;-74
2021/03/15 04:16:35;;;;;;;17.10;5.05;;;10.10;99.90;;;9.46;95.37;101954.22;4219399;28;20031;-74
2021/03/15 04:18:43;;;;;;;16.33;3.63;;;10.10;99.90;;;9.41;95.58;101957.19;4218118;28;20098;-74
2021/03/15 04:20:48;;;;;;;24.48;4.80;;;10.10;99.90;;;9.35;96.18;101959.44;4208994;28;20124;-74
2021/03/15 04:22:59;;;;;;;17.23;4.25;;;10.10;99.90;;;9.39;96.14;101951.22;4220700;28;20031;-74
2021/03/15 04:25:03;;;;;;;19.20;4.43;;;10.10;99.90;;;9.40;96.03;101949.41;4220721;28;20020;-74
2021/03/15 04:27:06;;;;;;;22.33;5.77;;;10.10;99.90;;;9.37;95.55;101934.69;4220815;28;20510;-74
2021/03/15 04:29:08;;;;;;;15.10;3.63;;;10.10;99.90;;;9.53;95.60;101954.56;4220605;28;20024;-74
2021/03/15 04:31:10;;;;;;;16.80;4.18;;;10.20;99.90;;;9.48;96.19;101961.97;4219316;28;20418;-74
2021/03/15 04:33:12;;;;;;;17.63;5.10;;;10.20;99.90;;;9.53;96.22;101957.22;4219553;28;20032;-74
2021/03/15 04:35:14;;;;;;;16.30;4.90;;;10.20;99.90;;;9.48;95.98;101962.81;4219046;28;20050;-74
2021/03/15 04:37:15;;;;;;;16.52;4.45;;;10.20;99.90;;;9.42;96.58;101963.28;4219189;28;20070;-74
2021/03/15 04:39:18;;;;;;;18.48;4.57;;;10.10;99.90;;;9.21;96.93;101933.34;4214785;28;20016;-74
2021/03/15 04:41:19;;;;;;;9.60;4.18;;;10.10;99.90;;;9.22;96.60;101935.88;4218972;28;20483;-74
2021/03/15 04:43:21;;;;;;;20.70;4.55;;;10.10;99.90;;;9.38;96.60;101959.22;4208395;28;20141;-74
2021/03/15 04:45:22;;;;;;;23.08;4.45;;;10.10;99.90;;;9.34;97.14;101957.78;4219202;28;20392;-74
2021/03/15 04:47:24;;;;;;;19.40;4.40;;;10.10;99.90;;;9.33;97.18;101956.09;4215292;28;20020;-74
2021/03/15 04:49:27;;;;;;;15.40;4.43;;;10.00;99.90;;;9.30;96.77;101946.66;4218971;28;20048;-74
2021/03/15 04:51:28;;;;;;;14.90;4.35;;;10.10;99.90;;;9.44;96.73;101964.00;4218965;28;20067;-74
2021/03/15 04:53:31;;;;;;;16.50;4.95;;;10.10;99.90;;;9.41;96.99;101974.78;4212629;28;20032;-74
2021/03/15 04:55:32;;;;;;;22.25;4.57;;;10.10;99.90;;;9.45;96.03;101963.06;4220176;28;20144;-74
2021/03/15 04:57:34;;;;;;;15.52;4.03;;;10.10;99.90;;;9.34;96.61;101961.28;4218591;28;20586;-74
2021/03/15 04:59:36;;;;;;;16.98;4.35;;;10.10;99.90;;;9.44;96.33;101961.38;4209543;28;20103;-74
2021/03/15 05:01:41;;;;;;;15.90;4.28;;;10.10;99.90;;;9.41;97.15;101972.13;4218643;28;20519;-74
2021/03/15 05:03:43;;;;;;;18.42;5.13;;;10.10;99.90;;;9.46;96.43;101964.75;4215823;28;20024;-74
2021/03/15 05:05:47;;;;;;;18.38;3.92;;;10.10;99.90;;;9.45;96.09;101957.78;4217996;28;20426;-74
2021/03/15 05:07:50;;;;;;;18.05;5.28;;;10.20;99.90;;;9.53;96.15;101965.13;4218754;28;20092;-74
2021/03/15 05:09:51;;;;;;;23.58;5.70;;;10.10;99.90;;;9.44;95.88;101950.84;4218676;28;20036;-74
2021/03/15 05:11:55;;;;;;;15.77;4.28;;;10.20;99.90;;;9.36;96.70;101976.94;4218517;28;20065;-74
2021/03/15 05:14:00;;;;;;;14.68;3.63;;;10.10;99.90;;;9.27;97.26;101964.47;4207503;28;20028;-74
2021/03/15 05:16:03;;;;;;;14.57;3.88;;;10.10;99.90;;;9.30;97.09;101958.97;4218483;28;20040;-74
2021/03/15 05:18:11;;;;;;;21.60;4.43;;;10.10;99.90;;;9.47;96.00;101976.94;4213674;28;20055;-74
2021/03/15 05:20:15;;;;;;;21.70;5.15;;;10.10;99.90;;;9.41;96.10;101974.78;4218718;28;20074;-74
2021/03/15 05:22:16;;;;;;;17.25;4.40;;;10.10;99.90;;;9.28;96.95;101961.75;4218616;28;20494;-74
2021/03/15 05:24:18;;;;;;;17.95;4.57;;;10.10;99.90;;;9.36;96.85;101984.84;4212385;28;20391;-74
2021/03/15 05:26:21;;;;;;;19.55;4.93;;;10.00;99.90;;;9.40;96.63;101986.28;4219407;28;20110;-74
2021/03/15 05:28:24;;;;;;;17.60;3.80;;;10.10;99.90;;;9.56;95.94;101981.50;4218416;28;20086;-74
2021/03/15 05:30:26;;;;;;;16.00;3.42;;;10.10;99.90;;;9.47;96.00;101969.03;4207492;28;20025;-74
2021/03/15 05:32:30;;;;;;;23.38;5.28;;;10.10;99.90;;;9.51;96.11;101970.47;4211178;28;20032;-74
2021/03/15 05:34:32;;;;;;;13.35;3.70;;;10.10;99.90;;;9.55;96.32;101979.00;4217728;28;20085;-74
2021/03/15 05:36:34;;;;;;;18.95;3.97;;;10.10;99.90;;;9.41;95.96;101967.72;4219228;28;20040;-74
2021/03/15 05:38:37;;;;;;;14.23;4.07;;;10.10;99.90;;;9.47;96.43;101971.66;4218331;28;20046;-74
2021/03/15 05:40:41;;;;;;;11.25;4.03;;;10.10;99.90;;;9.47;96.25;101976.94;4219539;28;20391;-74
2021/03/15 05:43:14;;;;;;;11.43;3.85;;;10.10;99.90;;;9.49;96.63;101966.28;4219207;28;20020;-74
2021/03/15 05:45:26;;;;;;;19.75;4.35;;;10.10;99.90;;;9.49;95.73;101975.03;4219538;28;20043;-74
2021/03/15 05:48:04;;;;;;;15.75;3.85;;;10.10;99.90;;;9.37;95.94;101950.50;4219455;28;20031;-74
2021/03/15 05:50:59;;;;;;;16.77;5.85;;;10.20;99.90;;;9.47;96.04;101966.41;4216973;28;20515;-74
2021/03/15 05:53:42;;;;;;;14.13;3.50;;;10.10;99.90;;;9.49;96.18;101961.88;4207930;28;20070;-74
2021/03/15 05:56:24;;;;;;;17.48;4.00;;;10.20;99.90;;;9.50;96.47;101965.34;4196385;28;20041;-74
2021/03/15 05:59:16;;;;;;;14.75;3.63;;;10.10;99.90;;;9.43;95.99;101971.09;4186837;28;20387;-74
2021/03/15 06:01:47;;;;;;;15.00;4.13;;;10.10;99.90;;;9.39;96.70;101974.06;4209190;28;20035;-74
2021/03/15 06:04:24;;;;;;;20.50;4.45;;;10.10;99.90;;;9.38;96.82;101978.50;4219031;28;20564;-74
2021/03/15 06:06:35;;;;;;;13.25;3.53;;;10.10;99.90;;;9.45;96.61;101981.50;4219036;28;20037;-74
2021/03/15 06:08:42;;;;;;;19.85;4.10;;;10.10;99.90;;;9.49;97.06;101975.03;4216847;28;20411;-74
2021/03/15 06:11:12;;;;;;;14.05;3.97;;;10.10;99.90;;;9.47;96.15;101986.66;4206347;28;20032;-74
2021/03/15 06:13:15;;;;;;;14.77;4.93;;;10.10;99.90;;;9.44;97.18;101982.44;4219079;28;20032;-74
2021/03/15 06:15:43;;;;;;;12.32;3.67;;;10.10;99.90;;;9.49;96.99;101985.56;4218710;28;20110;-74
2021/03/15 06:17:44;;;;;;;12.30;3.58;;;10.00;99.90;;;9.50;96.72;101981.97;4218029;28;20020;-74
2021/03/15 06:19:48;;;;;;;16.30;3.83;;;10.10;99.90;;;9.60;96.04;101985.56;4217412;28;20031;-74
2021/03/15 06:21:49;;;;;;;12.70;3.95;;;10.10;99.90;;;9.63;96.54;101987.13;4217080;28;20031;-74
2021/03/15 06:23:52;;;;;;;15.52;3.83;;;10.10;99.90;;;9.66;95.48;101986.88;4218897;28;20107;-74
2021/03/15 06:25:54;;;;;;;11.77;2.80;;;10.20;99.90;;;9.69;95.78;101991.91;4217532;28;20028;-74
2021/03/15 06:27:55;;;;;;;15.63;4.07;;;10.20;99.90;;;9.58;95.59;101998.03;4213602;28;20147;-73
2021/03/15 06:29:57;;;;;;;14.38;4.55;;;10.20;99.90;;;9.48;96.54;101999.69;4218601;28;20028;-74
2021/03/15 06:31:58;;;;;;;16.30;4.15;;;10.20;99.90;;;9.56;96.42;102004.38;4218920;28;20399;-74
2021/03/15 06:34:00;;;;;;;12.23;3.42;;;10.20;99.90;;;9.60;96.25;102006.66;4218455;28;20024;-74
2021/03/15 06:36:04;;;;;;;15.88;4.63;;;10.30;99.90;;;9.53;96.06;102008.06;4218540;28;20073;-74
2021/03/15 06:38:05;;;;;;;;;;;10.20;99.90;;;9.58;95.99;102015.63;4218986;28;20039;-74
2021/03/15 06:40:08;;;;;;;12.82;3.45;;;10.20;99.90;;;9.55;95.63;101990.38;4218559;28;19915;-74
2021/03/15 06:42:10;;;;;;;9.52;4.40;;;10.20;99.90;;;9.58;95.87;102016.47;4218515;28;20030;-74
2021/03/15 06:44:11;;;;;;;7.47;3.03;;;10.20;99.90;;;9.56;96.48;102004.38;4217310;28;20046;-74
2021/03/15 06:46:15;;;;;;;9.68;3.67;;;10.20;99.90;;;9.56;95.93;102020.19;4218404;28;20073;-74
2021/03/15 06:48:21;;;;;;;12.93;4.10;;;10.20;99.90;;;9.61;96.22;102016.25;4218368;28;20020;-74
2021/03/15 06:50:22;;;;;;;10.55;3.60;;;10.20;99.90;;;9.58;96.37;102024.38;4218171;28;20083;-74
2021/03/15 06:52:23;;;;;;;10.75;3.67;;;10.20;99.90;;;9.67;95.54;102018.41;4218248;28;20027;-74
2021/03/15 06:54:25;;;;;;;15.30;3.30;;;10.30;99.90;;;9.66;95.72;102023.78;4218511;28;20550;-75
2021/03/15 06:56:26;;;;;;;15.20;4.25;;;10.30;99.90;;;9.39;96.11;101989.88;4218396;28;20442;-74
2021/03/15 06:58:31;;;;;;;10.95;3.25;;;10.30;99.90;;;9.40;97.61;102033.69;4218442;28;20025;-73
2021/03/15 07:00:32;;;;;;;10.73;3.95;;;10.20;99.90;;;9.42;97.67;102026.50;4218373;28;20498;-73
2021/03/15 07:02:33;;;;;;;9.95;3.90;;;10.20;99.90;;;9.54;97.02;102037.88;4218443;28;20039;-73
2021/03/15 07:04:34;;;;;;;16.27;3.28;;;10.20;99.90;;;9.59;95.98;102038.41;4218007;28;20108;-72
2021/03/15 07:06:43;;;;;;;6.82;2.97;;;10.20;99.90;;;9.41;96.70;102019.53;4218295;28;20050;-72
2021/03/15 07:08:48;;;;;;;13.00;3.50;;;10.30;99.90;;;9.61;96.46;102047.84;4216852;28;20024;-72
2021/03/15 07:10:50;;;;;;;8.80;3.17;;;10.30;99.90;;;9.51;96.24;102041.59;4206203;28;20391;-72
2021/03/15 07:13:14;;;;;;;12.65;3.17;;;10.30;99.90;;;9.54;96.49;102051.91;4209819;28;20425;-71
2021/03/15 07:15:16;;;;;;;12.38;3.22;;;10.30;99.90;;;9.51;96.17;102049.50;4218020;28;20065;-71
2021/03/15 07:17:27;;;;;;;8.82;2.50;;;10.30;99.90;;;9.63;96.26;102058.25;4218398;28;20390;-71
2021/03/15 07:19:29;;;;;;;8.50;4.25;;;10.40;99.90;;;9.56;96.30;102057.88;4218070;28;20056;-72
2021/03/15 07:21:34;;;;;;;7.43;2.55;;;10.30;99.90;;;9.52;96.27;102055.63;4217337;28;20135;-73
2021/03/15 07:23:44;;;;;;;13.10;2.35;;;10.30;99.90;;;9.50;96.19;102055.72;4215750;28;20055;-75
2021/03/15 07:25:45;;;;;;;6.57;2.80;;;10.30;99.90;;;9.54;95.82;102051.06;4214225;28;20055;-75
2021/03/15 07:27:53;;;;;;;11.32;2.50;;;10.30;99.90;;;9.58;95.79;102055.16;4214898;28;20032;-75
2021/03/15 07:29:53;;;;;;;8.77;2.95;;;10.40;99.90;;;9.62;96.00;102059.19;4219371;28;20024;-74
2021/03/15 07:31:54;;;;;;;10.95;2.63;;;10.40;99.90;;;9.63;96.16;102061.75;4253327;27;20027;-75
2021/03/15 07:33:55;;;;;;;9.00;2.13;;;10.40;99.90;;;9.52;96.10;102063.50;4212409;28;20056;-74
2021/03/15 07:35:56;;;;;;;9.95;2.70;;;10.50;99.90;;;9.61;95.39;102047.00;4220897;28;20078;-75
2021/03/15 07:37:57;;;;;;;6.57;3.08;;;10.50;99.90;;;9.68;95.68;102064.00;4220731;28;20069;-75
2021/03/15 07:39:58;;;;;;;6.90;2.50;;;10.50;99.90;;;9.74;95.03;102061.75;4220885;28;20031;-74
2021/03/15 07:42:03;;;;;;;8.30;2.92;;;10.50;99.90;;;9.61;95.42;102061.03;4220950;28;20487;-73
2021/03/15 07:44:18;;;;;;;12.05;2.88;;;10.50;99.90;;;9.83;95.40;102073.38;4219123;28;20096;-75
2021/03/15 07:46:26;;;;;;;10.00;2.78;;;10.50;99.90;;;9.89;94.43;102076.38;4207788;28;20039;-75
2021/03/15 07:48:33;;;;;;;8.20;2.53;;;10.60;99.90;;;9.88;93.76;102066.81;4220743;28;20109;-73
2021/03/15 07:50:35;;;;;;;4.57;1.98;;;10.70;99.90;;;9.98;93.44;102095.91;4220434;28;20368;-75
2021/03/15 07:52:40;;;;;;;4.80;2.13;;;10.70;99.90;;;10.07;93.56;102095.19;4219649;28;20062;-74
2021/03/15 07:54:43;;;;;;;8.80;2.65;;;10.80;99.90;;;10.08;92.59;102096.03;4210112;28;20483;-74
2021/03/15 07:56:44;;;;;;;10.15;2.42;;;10.90;99.90;;;10.17;92.42;102097.97;4219410;28;20740;-74
2021/03/15 07:58:47;;;;;;;4.60;2.15;;;11.00;99.90;;;10.22;92.39;102095.81;4216886;28;20030;-75
2021/03/15 08:00:48;;;;;;;8.93;2.80;;;11.10;99.90;;;10.08;91.78;102088.13;4220730;28;20130;-74
2021/03/15 08:02:49;;;;;;;8.68;2.08;;;11.10;99.90;;;10.17;91.74;102092.69;4219698;28;20499;-74
2021/03/15 08:04:52;;;;;;;5.45;2.20;;;11.10;99.90;;;9.99;91.79;102069.44;4212931;28;20019;-74
2021/03/15 08:06:53;;;;;;;10.73;2.70;;;11.10;99.90;;;10.21;90.80;102097.63;4220501;28;20513;-74
2021/03/15 08:08:53;;;;;;;9.25;2.70;;;11.20;99.90;;;10.17;91.00;102096.19;4219287;28;20096;-74
2021/03/15 08:10:56;;;;;;;7.47;2.67;;;11.20;99.90;;;10.12;91.19;102086.94;4210104;28;20024;-74
2021/03/15 08:12:58;;;;;;;19.98;3.75;;;11.20;99.90;;;10.17;90.18;102088.28;4220467;28;20020;-74
2021/03/15 08:15:12;;;;;;;10.05;2.60;;;11.20;99.90;;;10.09;89.55;102074.84;4218787;28;20059;-74
2021/03/15 08:17:21;;;;;;;11.70;2.20;;;11.20;99.90;;;10.29;89.42;102099.66;4208729;28;20024;-74
2021/03/15 08:19:23;;;;;;;9.07;2.55;;;11.20;99.90;;;10.25;89.00;102095.56;4219859;28;20467;-73
2021/03/15 08:21:36;;;;;;;8.15;3.45;;;11.20;99.90;;;9.98;90.15;102088.00;4219267;28;20020;-74
2021/03/15 08:23:43;;;;;;;8.48;2.10;;;11.10;99.90;;;10.08;89.68;102106.56;4220466;28;20074;-75
2021/03/15 08:25:47;;;;;;;9.25;2.20;;;11.10;99.90;;;10.16;89.02;102101.56;4219060;28;20103;-75
2021/03/15 08:27:50;;;;;;;8.40;2.67;;;11.00;99.90;;;10.12;88.74;102110.66;4220635;28;20472;-75
2021/03/15 08:29:54;;;;;;;11.88;1.95;;;11.00;99.90;;;10.16;88.57;102101.56;4220450;28;20741;-74
2021/03/15 08:31:56;;;;;;;7.65;2.00;;;11.10;99.90;;;10.18;87.82;102111.06;4214077;28;20020;-74
2021/03/15 08:33:58;;;;;;;6.28;2.17;;;11.10;99.90;;;10.26;87.72;102111.28;4227452;28;20059;-75
2021/03/15 08:35:59;;;;;;;10.20;3.22;;;11.10;99.90;;;10.11;88.29;102115.09;4214521;28;20542;-74
2021/03/15 08:38:05;;;;;;;7.38;2.13;;;11.10;99.90;;;10.35;87.58;102117.63;4219298;28;20028;-74
2021/03/15 08:40:07;;;;;;;5.70;1.85;;;11.10;99.90;;;10.27;87.07;102110.34;4208813;28;20052;-75
2021/03/15 08:42:20;;;;;;;11.43;2.33;;;11.20;99.90;;;10.40;86.14;102118.94;4220549;28;20052;-74
2021/03/15 08:44:50;;;;;;;7.43;1.92;;;11.40;99.90;;;10.54;84.98;102136.34;4220447;28;20570;-75
2021/03/15 08:46:51;;;;;;;8.73;2.78;;;11.50;99.90;;;10.61;85.52;102137.50;4208079;28;20511;-75